Finchville, KY (40022)

2:40 PM EST on December 03, 2016 (GMT -0500)
Fox Lair | | Change Station

Elev 728 ft 38.11 °N, 85.38 °W | Updated 4 seconds ago

Scattered Clouds
Scattered Clouds
43.9 °F
Feels Like 44 °F
N
2.7
Wind Variable Wind from NW
Gusts 4.9 mph

Today
High -- | Low -- °F
--% Chance of Precip.
Yesterday
High -- | Low -- °F
Precip. -- in
Pressure 30.36 in
Visibility 10.0 miles
Clouds Scattered Clouds 3500 ft
Windchill 44 °F
Dew Point 11 °F
Humidity 26%
Rainfall 0.00 in
Snow Depth Not available.
7:41 AM 5:21 PM
Waxing Crescent, 16% visible
METAR KLOU 031853Z 32003KT 10SM SCT035 07/M02 A3035 RMK AO2 SLP279 T00671022
Pressure 30.36 in
Visibility 10.0 miles
Clouds Scattered Clouds 3500 ft
Windchill 44 °F
Dew Point 11 °F
Humidity 26%
Rainfall 0.00 in
Snow Depth Not available.
7:41 AM 5:21 PM
Waxing Crescent, 16% visible
METAR KLOU 031853Z 32003KT 10SM SCT035 07/M02 A3035 RMK AO2 SLP279 T00671022

10-Day Weather Forecast

Almanac

Astronomy

Dec. 03, 2016 Rise Set
Actual Time
Civil Twilight
Nautical Twilight
Astronomical Twilight
Moon
Length of Visible Light
Length of Day
Tomorrow will be .
, % of the Moon is Illuminated

Today's Extremes

State Highs State Lows

Community

WunderPhotos

Upload Photos

1,955,475 photos uploaded!

WunderBlog® & News

Nearby

Air Quality

  Air Quality AQ Index Pollutant
Not available.

Snow Depth

Station Depth Elevation

Earthquake Activity

City Distance Mag. Time & Date
Minimum magnitude displayed is 2.5.

Coastal Water Temperatures

Place Temperature

Stations

Nearby Weather Stations

Station Location Temp. Windchill Dew Point Humidity Wind Precip. Elev Updated Type
                   

Watches & Warnings

There are currently no watches in effect.